Time;durP1;ratioP1;P1;durP2;ratioP2;P2;SDS_P1;SDS_P2;PMS_P1;PMS_P2;Temp;Humidity;BMP_temperature;BMP_pressure;BME280_temperature;BME280_humidity;BME280_pressure;Samples;Min_cycle;Max_cycle;Signal;HPM_P1;HPM_P2
2021/09/14 00:03:36;;;;;;;4.32;2.56;;;;;;;14.82;83.67;99180.22;1973493;82;20200;-80
2021/09/14 00:07:19;;;;;;;5.40;2.67;;;;;;;14.70;84.02;99182.25;1967361;82;20180;-80
2021/09/14 00:10:29;;;;;;;5.03;3.33;;;;;;;14.60;84.63;99179.03;1968153;82;20601;-80
2021/09/14 00:14:27;;;;;;;7.59;3.60;;;;;;;14.53;84.98;99180.03;1967658;82;20179;-80
2021/09/14 00:17:45;;;;;;;5.86;3.04;;;;;;;14.44;85.39;99180.28;1973628;82;20174;-80
2021/09/14 00:21:04;;;;;;;4.46;3.25;;;;;;;14.36;85.68;99180.44;1976456;82;20362;-80
2021/09/14 00:24:42;;;;;;;3.29;2.85;;;;;;;14.28;85.90;99178.88;1978126;82;20279;-81
2021/09/14 00:28:24;;;;;;;6.85;3.24;;;;;;;14.19;86.14;99182.56;1981473;82;20213;-80
2021/09/14 00:32:06;;;;;;;5.16;2.64;;;;;;;14.08;86.76;99181.94;1979345;82;20345;-80
2021/09/14 00:35:15;;;;;;;3.61;2.30;;;;;;;14.02;87.08;99176.88;1968823;82;20189;-80
2021/09/14 00:38:45;;;;;;;2.64;2.39;;;;;;;14.00;86.99;99178.63;1974707;81;20197;-80
2021/09/14 00:42:28;;;;;;;3.05;1.81;;;;;;;13.97;87.16;99171.72;1970036;82;20190;-80
2021/09/14 00:45:53;;;;;;;1.96;1.76;;;;;;;13.97;86.76;99168.25;1956337;83;20822;-80
2021/09/14 00:49:16;;;;;;;2.66;1.90;;;;;;;13.94;86.31;99163.97;1957959;83;20734;-80
2021/09/14 00:52:41;;;;;;;1.95;1.64;;;;;;;13.91;86.18;99164.03;1954995;83;20242;-80
2021/09/14 00:56:08;;;;;;;2.34;1.45;;;;;;;13.86;86.13;99158.91;1956105;83;20596;-82
2021/09/14 00:59:38;;;;;;;3.09;1.95;;;;;;;13.81;85.96;99152.91;1957696;83;20825;-80
2021/09/14 01:02:52;;;;;;;3.14;1.70;;;;;;;13.79;85.79;99161.66;1951938;83;20293;-80
2021/09/14 01:06:37;;;;;;;3.83;2.03;;;;;;;13.65;85.95;99155.91;1951876;83;20327;-80
2021/09/14 01:10:30;;;;;;;2.40;1.60;;;;;;;13.50;86.80;99160.53;1951391;83;20220;-80
2021/09/14 01:14:00;;;;;;;3.26;1.89;;;;;;;13.46;87.36;99169.28;1944761;83;20322;-80
2021/09/14 01:17:12;;;;;;;2.74;2.00;;;;;;;13.45;87.39;99162.34;1938484;83;20737;-80
2021/09/14 01:20:20;;;;;;;2.59;1.99;;;;;;;13.43;87.25;99155.44;1947205;83;20201;-80
2021/09/14 01:36:47;;;;;;;2.04;1.25;;;;;;;13.19;87.53;99164.63;1986302;81;20569;-80
2021/09/14 01:40:04;;;;;;;2.45;1.51;;;;;;;13.18;87.78;99153.34;1986615;82;20552;-80
2021/09/14 01:43:09;;;;;;;2.25;1.46;;;;;;;13.19;87.48;99154.19;1986655;82;20225;-80
2021/09/14 01:46:19;;;;;;;2.53;1.50;;;;;;;13.13;87.44;99152.53;1986216;79;21839;-79
2021/09/14 01:49:36;;;;;;;2.14;1.58;;;;;;;13.09;87.48;99161.28;1985714;82;20349;-80
2021/09/14 01:52:44;;;;;;;1.52;1.39;;;;;;;13.05;87.58;99150.94;1979177;82;20254;-80
2021/09/14 01:55:53;;;;;;;3.64;1.60;;;;;;;12.99;87.64;99155.38;1979141;82;20177;-80
2021/09/14 01:58:58;;;;;;;2.83;1.46;;;;;;;13.00;87.63;99149.28;1979494;82;21036;-80
2021/09/14 02:02:14;;;;;;;1.64;1.54;;;;;;;13.00;87.51;99145.81;1988243;81;20516;-80
2021/09/14 02:05:34;;;;;;;2.94;1.66;;;;;;;12.98;87.21;99145.84;1989765;81;20163;-80
2021/09/14 02:23:39;;;;;;;4.81;1.80;;;;;;;12.94;87.34;99138.13;1989942;81;20180;-80
2021/09/14 02:56:34;;;;;;;2.38;1.66;;;;;;;12.45;88.73;99128.53;1988246;81;20945;-80
2021/09/14 02:59:38;;;;;;;3.14;1.77;;;;;;;12.40;88.55;99139.03;1984856;81;20167;-80
2021/09/14 03:02:44;;;;;;;2.05;1.61;;;;;;;12.33;88.76;99139.13;1982389;81;20249;-80
2021/09/14 03:06:06;;;;;;;2.10;1.65;;;;;;;12.25;89.05;99151.41;1980530;81;20176;-80
2021/09/14 03:09:14;;;;;;;2.92;1.60;;;;;;;12.22;89.57;99154.94;1991474;81;20164;-80
2021/09/14 03:12:18;;;;;;;3.63;1.74;;;;;;;12.22;89.73;99161.88;1984219;81;20205;-80
2021/09/14 03:15:23;;;;;;;2.80;1.71;;;;;;;12.26;89.93;99151.38;1989743;81;20783;-80
2021/09/14 03:18:29;;;;;;;1.70;1.58;;;;;;;12.30;89.84;99149.59;1983702;81;20238;-80
2021/09/14 03:21:32;;;;;;;3.65;1.85;;;;;;;12.30;89.47;99141.78;1990732;81;20249;-80
2021/09/14 03:24:41;;;;;;;3.34;1.81;;;;;;;12.33;89.24;99144.34;1990390;81;20327;-79
2021/09/14 03:27:45;;;;;;;4.22;3.04;;;;;;;12.33;88.91;99139.13;1990595;81;20420;-80
2021/09/14 03:30:52;;;;;;;2.49;1.89;;;;;;;12.34;88.53;99136.50;1990539;81;20594;-80
2021/09/14 03:34:09;;;;;;;2.35;1.70;;;;;;;12.30;88.23;99129.63;1986026;81;20336;-80
2021/09/14 03:37:13;;;;;;;3.42;1.84;;;;;;;12.28;88.38;99130.53;1997380;81;20280;-80
2021/09/14 03:40:22;;;;;;;2.30;2.10;;;;;;;12.24;88.25;99134.94;1989265;71;20172;-80
2021/09/14 03:43:35;;;;;;;4.09;1.88;;;;;;;12.17;88.74;99125.47;1985019;81;20218;-80
2021/09/14 03:46:51;;;;;;;3.38;1.64;;;;;;;12.16;89.07;99123.75;1990935;81;20180;-80
2021/09/14 03:50:04;;;;;;;3.17;2.15;;;;;;;12.10;89.51;99113.47;1992018;81;20237;-80
2021/09/14 03:53:11;;;;;;;2.92;2.38;;;;;;;12.11;90.11;99115.19;1990052;81;20184;-80
2021/09/14 03:56:25;;;;;;;5.30;2.01;;;;;;;12.14;90.16;99112.53;1991868;81;20169;-80
2021/09/14 03:59:40;;;;;;;3.22;2.40;;;;;;;12.12;90.32;99110.81;1987837;81;20192;-80
2021/09/14 04:02:54;;;;;;;5.51;2.63;;;;;;;12.14;91.20;99115.13;1989475;81;20184;-80
2021/09/14 04:06:19;;;;;;;;;;;;;;;12.18;91.39;99108.13;1990963;81;20248;-79
2021/09/14 04:09:21;;;;;;;3.64;2.14;;;;;;;12.18;91.29;99098.56;1991830;81;20138;-79
2021/09/14 04:12:24;;;;;;;3.42;2.33;;;;;;;12.20;91.38;99099.41;1991754;81;20242;-79
2021/09/14 04:15:27;;;;;;;5.43;2.60;;;;;;;12.22;91.58;99092.47;1991545;81;20195;-80
2021/09/14 04:18:32;;;;;;;6.10;2.76;;;;;;;12.26;91.45;99093.25;1997011;81;20175;-80
2021/09/14 04:21:50;;;;;;;3.05;2.70;;;;;;;12.29;90.98;99091.47;1993351;81;20476;-80
2021/09/14 04:24:59;;;;;;;;;;;;;;;12.30;90.75;99089.72;1997845;81;20261;-80
2021/09/14 04:28:17;;;;;;;2.83;2.13;;;;;;;12.32;90.84;99096.63;1997500;81;20079;-80
2021/09/14 04:31:26;;;;;;;2.15;1.66;;;;;;;12.23;91.05;99091.56;1990881;79;179805;-79
2021/09/14 04:34:40;;;;;;;3.33;2.04;;;;;;;12.18;90.95;99093.38;1998178;81;20944;-80
2021/09/14 04:38:00;;;;;;;3.26;1.90;;;;;;;12.14;91.22;99103.84;1996104;81;20948;-80
2021/09/14 04:41:12;;;;;;;4.88;1.96;;;;;;;12.09;90.76;99112.59;1997211;81;20201;-80
2021/09/14 04:44:15;;;;;;;2.85;1.73;;;;;;;12.03;90.71;99104.03;1987100;81;20302;-80
2021/09/14 04:47:27;;;;;;;1.74;1.50;;;;;;;12.00;90.67;99096.25;1985757;81;20276;-80
2021/09/14 04:50:44;;;;;;;1.94;1.66;;;;;;;12.01;90.26;99087.56;1997268;81;20294;-80
2021/09/14 04:53:53;;;;;;;2.19;1.77;;;;;;;12.01;89.94;99100.56;1997215;81;20179;-79
2021/09/14 04:57:15;;;;;;;1.98;1.69;;;;;;;11.91;89.89;99099.00;1996075;81;20275;-80
2021/09/14 05:00:29;;;;;;;2.74;1.79;;;;;;;11.88;89.95;99099.91;1996371;81;20265;-80
2021/09/14 05:03:40;;;;;;;2.83;1.60;;;;;;;11.82;89.83;99101.72;1990559;81;20291;-80
2021/09/14 05:06:47;;;;;;;4.09;1.79;;;;;;;11.77;90.46;99101.75;1987068;81;20259;-80
2021/09/14 05:09:52;;;;;;;2.78;1.61;;;;;;;11.72;90.68;99103.56;1993712;81;20171;-80
2021/09/14 05:13:03;;;;;;;1.99;1.59;;;;;;;11.68;90.82;99102.75;1987772;81;20199;-80
2021/09/14 05:16:07;;;;;;;5.26;1.86;;;;;;;11.62;90.71;99108.03;1984082;81;20206;-80
2021/09/14 05:19:16;;;;;;;1.92;1.70;;;;;;;11.56;90.80;99115.91;1985740;81;20237;-80
2021/09/14 05:22:21;;;;;;;2.71;1.60;;;;;;;11.57;91.02;99120.22;1993044;81;20202;-80
2021/09/14 05:25:28;;;;;;;2.68;1.70;;;;;;;11.61;91.25;99108.03;1992332;81;20213;-80
2021/09/14 05:31:57;;;;;;;1.92;1.61;;;;;;;11.83;90.95;99111.25;1993007;82;20199;-82
2021/09/14 05:35:49;;;;;;;2.76;1.40;;;;;;;11.91;90.55;99101.59;1982260;82;20203;-83
2021/09/14 05:39:37;;;;;;;2.86;1.90;;;;;;;11.98;90.10;99106.69;1989533;82;20169;-84
2021/09/14 05:43:06;;;;;;;2.59;2.06;;;;;;;11.91;90.09;99107.66;1987511;82;20294;-83
2021/09/14 05:46:25;;;;;;;4.78;2.00;;;;;;;11.92;90.19;99118.94;1981537;82;20196;-82
2021/09/14 05:50:05;;;;;;;2.69;1.96;;;;;;;11.96;90.33;99111.06;1987136;82;20149;-83
2021/09/14 05:53:43;;;;;;;2.16;1.94;;;;;;;12.09;90.63;99103.94;1987752;81;20283;-82
2021/09/14 05:58:00;;;;;;;3.72;1.88;;;;;;;12.18;90.54;99114.19;1990694;82;20154;-82
2021/09/14 21:51:32;;;;;;;2.91;2.71;;;;;;;17.67;92.64;99027.94;2337724;68;20185;-80
2021/09/14 21:54:35;;;;;;;3.66;2.10;;;;;;;17.66;92.70;99029.69;2347265;68;20174;-80
2021/09/14 21:57:37;;;;;;;2.91;2.64;;;;;;;17.64;92.85;99034.16;2349401;68;20177;-80
2021/09/14 22:00:45;;;;;;;2.90;2.67;;;;;;;17.63;92.81;99032.44;2342965;68;20110;-80
2021/09/14 22:03:47;;;;;;;4.15;2.78;;;;;;;17.63;92.61;99029.81;2346972;68;20263;-80
2021/09/14 22:06:50;;;;;;;3.44;3.01;;;;;;;17.58;92.71;99025.66;2344617;68;20134;-79
2021/09/14 22:09:53;;;;;;;3.85;2.76;;;;;;;17.59;92.58;99030.84;2342604;68;20168;-79
2021/09/14 22:12:56;;;;;;;3.61;2.92;;;;;;;17.57;92.36;99024.78;2346418;68;20138;-80
2021/09/14 22:15:58;;;;;;;3.10;2.90;;;;;;;17.55;92.32;99017.91;2342322;66;28632;-80
2021/09/14 22:19:01;;;;;;;2.97;2.78;;;;;;;17.53;92.19;99025.84;2336266;69;20124;-80
2021/09/14 22:22:04;;;;;;;3.47;2.71;;;;;;;17.50;92.28;99018.94;2333359;69;20151;-79
2021/09/14 22:25:08;;;;;;;3.44;2.66;;;;;;;17.50;92.42;99023.34;2335653;69;20145;-80
2021/09/14 22:28:11;;;;;;;2.84;2.64;;;;;;;17.51;92.37;99025.03;2335063;69;20208;-80
2021/09/14 22:31:14;;;;;;;2.65;2.54;;;;;;;17.49;92.45;99022.47;2329781;69;20140;-80
2021/09/14 22:34:17;;;;;;;3.22;2.83;;;;;;;17.50;92.39;99018.06;2341903;69;20104;-80
2021/09/14 22:37:19;;;;;;;3.64;2.91;;;;;;;17.50;92.43;99023.34;2333115;68;20144;-80
2021/09/14 22:40:22;;;;;;;3.80;3.13;;;;;;;17.50;92.47;99020.72;2333461;69;20198;-80
2021/09/14 22:43:25;;;;;;;2.92;2.67;;;;;;;17.49;92.50;99025.09;2331680;69;20152;-80
2021/09/14 22:46:28;;;;;;;5.11;2.63;;;;;;;17.47;92.52;99026.06;2332369;69;20159;-80
2021/09/14 22:49:30;;;;;;;2.85;2.65;;;;;;;17.44;92.67;99021.81;2331265;69;20116;-80
2021/09/14 22:52:38;;;;;;;4.50;2.51;;;;;;;17.43;92.73;99020.09;2335593;69;20148;-80
2021/09/14 22:55:41;;;;;;;3.46;2.72;;;;;;;17.42;92.57;99015.75;2332324;69;20161;-80
2021/09/14 22:58:43;;;;;;;6.61;3.03;;;;;;;17.42;92.51;99017.53;2333572;69;20210;-80
2021/09/14 23:01:46;;;;;;;3.17;2.58;;;;;;;17.41;92.62;99019.28;2331851;69;20215;-80
2021/09/14 23:04:48;;;;;;;4.03;2.95;;;;;;;17.41;92.52;99015.78;2330211;69;20147;-80
2021/09/14 23:07:51;;;;;;;3.42;3.13;;;;;;;17.40;92.60;99016.72;2333922;69;20096;-79
2021/09/14 23:10:54;;;;;;;4.65;2.99;;;;;;;17.40;92.65;99009.69;2335710;69;20161;-80
2021/09/14 23:13:56;;;;;;;3.91;3.20;;;;;;;17.39;92.76;99013.22;2337597;68;20144;-79
2021/09/14 23:16:59;;;;;;;5.05;3.03;;;;;;;17.36;92.79;99013.34;2334052;65;39334;-80
2021/09/14 23:20:03;;;;;;;3.20;2.80;;;;;;;17.36;92.81;99007.25;2338906;68;20198;-79
2021/09/14 23:23:06;;;;;;;3.44;2.78;;;;;;;17.36;92.87;99013.34;2338117;68;20271;-80
2021/09/14 23:26:09;;;;;;;5.59;3.06;;;;;;;17.35;92.72;99014.25;2340371;68;20142;-80
2021/09/14 23:29:11;;;;;;;2.91;2.67;;;;;;;17.33;92.68;99010.84;2341696;68;20130;-79
2021/09/14 23:35:34;;;;;;;4.76;2.66;;;;;;;17.34;92.59;99001.19;2332641;68;20179;-80
2021/09/14 23:38:38;;;;;;;3.13;2.58;;;;;;;17.33;92.68;98994.25;2333238;68;20174;-80
2021/09/14 23:41:40;;;;;;;4.54;2.92;;;;;;;17.33;92.63;98995.09;2332519;69;20171;-80
2021/09/14 23:44:43;;;;;;;5.90;2.92;;;;;;;17.33;92.55;98996.88;2332611;68;20148;-79
2021/09/14 23:47:46;;;;;;;4.06;2.95;;;;;;;17.32;92.45;98988.16;2336036;66;33139;-81
2021/09/14 23:50:48;;;;;;;6.26;2.90;;;;;;;17.31;92.50;98988.19;2329933;69;20148;-79
2021/09/14 23:53:51;;;;;;;4.16;2.75;;;;;;;17.29;92.46;98988.25;2332124;69;20149;-80
2021/09/14 23:56:54;;;;;;;3.74;2.97;;;;;;;17.26;92.73;98991.00;2332995;68;20146;-79
2021/09/14 23:59:57;;;;;;;5.49;2.94;;;;;;;17.24;92.80;98986.75;2330495;69;20147;-79
